3WI0 weather

Carnot Field
Algoma, Wisconsin, United States

Public forecast

Using degrees Fahrenheit for public forecast. Weather courtesy of forecast.io.

METAR (pilot weather report)

Closest report is Door County Cherryland Airport, 12.1 nm (22.4 km) N. Retrieved 2019/09/23 18:56 UTC (22 minutes ago):

KSUE 231856Z AUTO 30008KT 10SM CLR 19/13 A2994 RMK AO2 SLP137 T01890133

TAF (pilot weather forecast)

Closest forecast is Austin Straubel International Airport, 31.8 nm (58.9 km) WSW. Retrieved 2019/09/23 18:27 UTC (51 minutes ago):

TAF KGRB 231723Z 2318/2418 29011G19KT P6SM BKN035 FM232000 29011G16KT P6SM SCT045 FM232200 27006KT P6SM SCT040 FM240200 25003KT P6SM SKC FM241500 21008KT P6SM SCT030